sensor_id;sensor_type;location;lat;lon;timestamp;P1;durP1;ratioP1;P2;durP2;ratioP2
44147;SDS011;29810;55.848;37.368;2022-07-25T00:00:44;7.75;;;6.95;;
44147;SDS011;29810;55.848;37.368;2022-07-25T00:03:46;7.60;;;6.80;;
44147;SDS011;29810;55.848;37.368;2022-07-25T00:06:47;9.10;;;6.57;;
44147;SDS011;29810;55.848;37.368;2022-07-25T00:09:49;8.90;;;7.18;;
44147;SDS011;29810;55.848;37.368;2022-07-25T00:12:50;7.97;;;6.97;;
44147;SDS011;29810;55.848;37.368;2022-07-25T00:15:52;7.60;;;6.65;;
44147;SDS011;29810;55.848;37.368;2022-07-25T00:18:53;7.68;;;6.62;;
44147;SDS011;29810;55.848;37.368;2022-07-25T00:21:55;8.55;;;6.35;;
44147;SDS011;29810;55.848;37.368;2022-07-25T00:24:58;9.23;;;6.20;;
44147;SDS011;29810;55.848;37.368;2022-07-25T00:28:00;7.40;;;6.70;;
44147;SDS011;29810;55.848;37.368;2022-07-25T00:31:01;7.75;;;7.00;;
44147;SDS011;29810;55.848;37.368;2022-07-25T00:34:03;10.02;;;7.50;;
44147;SDS011;29810;55.848;37.368;2022-07-25T00:37:04;8.35;;;7.18;;
44147;SDS011;29810;55.848;37.368;2022-07-25T00:40:06;9.55;;;8.10;;
44147;SDS011;29810;55.848;37.368;2022-07-25T00:43:08;8.70;;;7.85;;
44147;SDS011;29810;55.848;37.368;2022-07-25T00:46:16;9.70;;;7.32;;
44147;SDS011;29810;55.848;37.368;2022-07-25T00:49:18;8.20;;;7.15;;
44147;SDS011;29810;55.848;37.368;2022-07-25T00:52:19;8.63;;;7.78;;
44147;SDS011;29810;55.848;37.368;2022-07-25T00:55:21;7.80;;;6.65;;
44147;SDS011;29810;55.848;37.368;2022-07-25T00:58:23;8.93;;;6.85;;
44147;SDS011;29810;55.848;37.368;2022-07-25T01:01:25;9.02;;;6.87;;
44147;SDS011;29810;55.848;37.368;2022-07-25T01:04:26;8.13;;;7.32;;
44147;SDS011;29810;55.848;37.368;2022-07-25T01:07:28;7.93;;;7.18;;
44147;SDS011;29810;55.848;37.368;2022-07-25T01:10:30;9.10;;;7.10;;
44147;SDS011;29810;55.848;37.368;2022-07-25T01:13:32;8.63;;;7.25;;
44147;SDS011;29810;55.848;37.368;2022-07-25T01:16:34;11.55;;;7.18;;
44147;SDS011;29810;55.848;37.368;2022-07-25T01:19:36;7.75;;;6.95;;
44147;SDS011;29810;55.848;37.368;2022-07-25T01:22:37;10.23;;;7.62;;
44147;SDS011;29810;55.848;37.368;2022-07-25T01:25:39;8.45;;;7.65;;
44147;SDS011;29810;55.848;37.368;2022-07-25T01:28:41;11.05;;;8.38;;
44147;SDS011;29810;55.848;37.368;2022-07-25T01:31:43;9.27;;;8.20;;
44147;SDS011;29810;55.848;37.368;2022-07-25T01:34:44;9.38;;;8.43;;
44147;SDS011;29810;55.848;37.368;2022-07-25T01:37:46;10.27;;;8.98;;
44147;SDS011;29810;55.848;37.368;2022-07-25T01:40:47;9.27;;;8.27;;
44147;SDS011;29810;55.848;37.368;2022-07-25T01:43:49;10.40;;;8.63;;
44147;SDS011;29810;55.848;37.368;2022-07-25T01:46:50;10.10;;;8.27;;
44147;SDS011;29810;55.848;37.368;2022-07-25T01:49:52;8.50;;;7.60;;
44147;SDS011;29810;55.848;37.368;2022-07-25T01:52:54;9.45;;;7.50;;
44147;SDS011;29810;55.848;37.368;2022-07-25T01:55:56;9.32;;;7.62;;
44147;SDS011;29810;55.848;37.368;2022-07-25T01:58:57;8.32;;;7.37;;
44147;SDS011;29810;55.848;37.368;2022-07-25T02:01:59;9.75;;;7.12;;
44147;SDS011;29810;55.848;37.368;2022-07-25T02:05:00;7.72;;;6.95;;
44147;SDS011;29810;55.848;37.368;2022-07-25T02:08:02;9.02;;;6.62;;
44147;SDS011;29810;55.848;37.368;2022-07-25T02:11:04;8.55;;;6.65;;
44147;SDS011;29810;55.848;37.368;2022-07-25T02:14:05;7.18;;;6.47;;
44147;SDS011;29810;55.848;37.368;2022-07-25T02:17:07;8.48;;;6.62;;
44147;SDS011;29810;55.848;37.368;2022-07-25T02:20:09;7.55;;;6.80;;
44147;SDS011;29810;55.848;37.368;2022-07-25T02:23:12;7.78;;;6.55;;
44147;SDS011;29810;55.848;37.368;2022-07-25T02:26:14;9.38;;;6.45;;
44147;SDS011;29810;55.848;37.368;2022-07-25T02:29:15;7.40;;;6.62;;
44147;SDS011;29810;55.848;37.368;2022-07-25T02:32:17;7.97;;;6.50;;
44147;SDS011;29810;55.848;37.368;2022-07-25T02:35:19;7.82;;;6.65;;
44147;SDS011;29810;55.848;37.368;2022-07-25T02:38:21;8.00;;;7.30;;
44147;SDS011;29810;55.848;37.368;2022-07-25T02:41:23;10.02;;;7.32;;
44147;SDS011;29810;55.848;37.368;2022-07-25T02:44:24;9.35;;;7.95;;
44147;SDS011;29810;55.848;37.368;2022-07-25T02:47:26;8.93;;;8.02;;
44147;SDS011;29810;55.848;37.368;2022-07-25T02:50:27;10.98;;;8.82;;
44147;SDS011;29810;55.848;37.368;2022-07-25T02:53:29;11.60;;;8.57;;
44147;SDS011;29810;55.848;37.368;2022-07-25T02:56:31;10.23;;;8.15;;
44147;SDS011;29810;55.848;37.368;2022-07-25T02:59:33;8.68;;;7.80;;
44147;SDS011;29810;55.848;37.368;2022-07-25T03:02:34;9.73;;;7.87;;
44147;SDS011;29810;55.848;37.368;2022-07-25T03:05:36;8.13;;;7.30;;
44147;SDS011;29810;55.848;37.368;2022-07-25T03:08:37;7.80;;;7.00;;
44147;SDS011;29810;55.848;37.368;2022-07-25T03:11:39;9.05;;;7.30;;
44147;SDS011;29810;55.848;37.368;2022-07-25T03:14:40;7.97;;;6.80;;
44147;SDS011;29810;55.848;37.368;2022-07-25T03:17:42;8.20;;;7.10;;
44147;SDS011;29810;55.848;37.368;2022-07-25T03:20:43;10.00;;;7.55;;
44147;SDS011;29810;55.848;37.368;2022-07-25T03:23:45;8.10;;;7.30;;
44147;SDS011;29810;55.848;37.368;2022-07-25T03:26:46;9.00;;;6.93;;
44147;SDS011;29810;55.848;37.368;2022-07-25T03:29:48;9.43;;;7.25;;
44147;SDS011;29810;55.848;37.368;2022-07-25T03:32:50;8.88;;;7.20;;
44147;SDS011;29810;55.848;37.368;2022-07-25T03:35:51;11.35;;;7.32;;
44147;SDS011;29810;55.848;37.368;2022-07-25T03:38:53;10.05;;;6.80;;
44147;SDS011;29810;55.848;37.368;2022-07-25T03:41:56;10.18;;;7.55;;
44147;SDS011;29810;55.848;37.368;2022-07-25T03:44:58;11.25;;;7.05;;
44147;SDS011;29810;55.848;37.368;2022-07-25T03:48:01;10.25;;;6.87;;
44147;SDS011;29810;55.848;37.368;2022-07-25T03:51:02;8.15;;;7.20;;
44147;SDS011;29810;55.848;37.368;2022-07-25T03:54:04;7.47;;;6.55;;
44147;SDS011;29810;55.848;37.368;2022-07-25T03:57:06;10.55;;;7.30;;
44147;SDS011;29810;55.848;37.368;2022-07-25T04:00:08;9.57;;;7.15;;
44147;SDS011;29810;55.848;37.368;2022-07-25T04:03:11;9.93;;;7.15;;
44147;SDS011;29810;55.848;37.368;2022-07-25T04:06:12;8.50;;;7.28;;
44147;SDS011;29810;55.848;37.368;2022-07-25T04:09:14;8.00;;;6.80;;
44147;SDS011;29810;55.848;37.368;2022-07-25T04:12:15;7.85;;;7.07;;
44147;SDS011;29810;55.848;37.368;2022-07-25T04:15:18;6.97;;;6.37;;
44147;SDS011;29810;55.848;37.368;2022-07-25T04:18:20;7.35;;;6.45;;
44147;SDS011;29810;55.848;37.368;2022-07-25T04:21:22;7.20;;;6.50;;
44147;SDS011;29810;55.848;37.368;2022-07-25T04:24:23;9.15;;;6.75;;
44147;SDS011;29810;55.848;37.368;2022-07-25T04:27:25;8.40;;;6.78;;
44147;SDS011;29810;55.848;37.368;2022-07-25T04:30:27;7.68;;;6.95;;
44147;SDS011;29810;55.848;37.368;2022-07-25T04:33:28;7.62;;;6.70;;
44147;SDS011;29810;55.848;37.368;2022-07-25T04:36:30;7.78;;;7.00;;
44147;SDS011;29810;55.848;37.368;2022-07-25T04:39:31;7.65;;;6.85;;
44147;SDS011;29810;55.848;37.368;2022-07-25T04:42:33;8.75;;;7.28;;
44147;SDS011;29810;55.848;37.368;2022-07-25T04:45:35;7.68;;;6.82;;
44147;SDS011;29810;55.848;37.368;2022-07-25T04:48:36;7.70;;;6.90;;
44147;SDS011;29810;55.848;37.368;2022-07-25T04:51:38;7.85;;;7.10;;
44147;SDS011;29810;55.848;37.368;2022-07-25T04:54:39;7.93;;;7.22;;
44147;SDS011;29810;55.848;37.368;2022-07-25T04:57:41;7.30;;;6.70;;
44147;SDS011;29810;55.848;37.368;2022-07-25T05:00:42;8.13;;;6.80;;
44147;SDS011;29810;55.848;37.368;2022-07-25T05:03:44;7.95;;;6.65;;
44147;SDS011;29810;55.848;37.368;2022-07-25T05:06:46;7.43;;;6.40;;
44147;SDS011;29810;55.848;37.368;2022-07-25T05:09:47;7.20;;;6.40;;
44147;SDS011;29810;55.848;37.368;2022-07-25T05:12:49;7.87;;;6.40;;
44147;SDS011;29810;55.848;37.368;2022-07-25T05:15:50;8.02;;;7.10;;
44147;SDS011;29810;55.848;37.368;2022-07-25T05:18:52;7.00;;;6.30;;
44147;SDS011;29810;55.848;37.368;2022-07-25T05:21:53;7.18;;;6.47;;
44147;SDS011;29810;55.848;37.368;2022-07-25T05:24:55;6.95;;;6.25;;
44147;SDS011;29810;55.848;37.368;2022-07-25T05:27:56;6.87;;;6.28;;
44147;SDS011;29810;55.848;37.368;2022-07-25T05:30:58;8.05;;;6.50;;
44147;SDS011;29810;55.848;37.368;2022-07-25T05:34:00;6.70;;;6.00;;
44147;SDS011;29810;55.848;37.368;2022-07-25T05:37:02;6.82;;;6.12;;
44147;SDS011;29810;55.848;37.368;2022-07-25T05:40:05;6.75;;;5.87;;
44147;SDS011;29810;55.848;37.368;2022-07-25T05:43:07;6.80;;;5.97;;
44147;SDS011;29810;55.848;37.368;2022-07-25T05:46:09;7.15;;;6.20;;
44147;SDS011;29810;55.848;37.368;2022-07-25T05:49:10;8.38;;;6.47;;
44147;SDS011;29810;55.848;37.368;2022-07-25T05:52:12;7.15;;;6.45;;
44147;SDS011;29810;55.848;37.368;2022-07-25T05:55:13;7.60;;;7.00;;
44147;SDS011;29810;55.848;37.368;2022-07-25T05:58:16;7.87;;;7.07;;
44147;SDS011;29810;55.848;37.368;2022-07-25T06:01:17;8.48;;;7.30;;
44147;SDS011;29810;55.848;37.368;2022-07-25T06:04:19;8.07;;;6.95;;
44147;SDS011;29810;55.848;37.368;2022-07-25T06:07:20;8.10;;;6.97;;
44147;SDS011;29810;55.848;37.368;2022-07-25T06:10:22;9.88;;;7.18;;
44147;SDS011;29810;55.848;37.368;2022-07-25T06:13:24;8.55;;;7.00;;
44147;SDS011;29810;55.848;37.368;2022-07-25T06:16:26;7.47;;;6.55;;
44147;SDS011;29810;55.848;37.368;2022-07-25T06:19:28;7.65;;;6.85;;
44147;SDS011;29810;55.848;37.368;2022-07-25T06:22:29;7.18;;;6.47;;
44147;SDS011;29810;55.848;37.368;2022-07-25T06:25:31;7.20;;;6.43;;
44147;SDS011;29810;55.848;37.368;2022-07-25T06:28:33;7.50;;;6.80;;
44147;SDS011;29810;55.848;37.368;2022-07-25T06:31:34;7.60;;;6.90;;
44147;SDS011;29810;55.848;37.368;2022-07-25T06:34:36;7.70;;;6.90;;
44147;SDS011;29810;55.848;37.368;2022-07-25T06:37:38;7.75;;;6.90;;
44147;SDS011;29810;55.848;37.368;2022-07-25T06:40:40;7.82;;;7.12;;
44147;SDS011;29810;55.848;37.368;2022-07-25T06:43:41;8.55;;;7.03;;
44147;SDS011;29810;55.848;37.368;2022-07-25T06:46:43;8.50;;;7.60;;
44147;SDS011;29810;55.848;37.368;2022-07-25T06:49:45;8.15;;;7.20;;
44147;SDS011;29810;55.848;37.368;2022-07-25T06:52:46;9.70;;;7.28;;
44147;SDS011;29810;55.848;37.368;2022-07-25T06:55:48;8.45;;;7.28;;
44147;SDS011;29810;55.848;37.368;2022-07-25T06:58:50;8.32;;;7.05;;
44147;SDS011;29810;55.848;37.368;2022-07-25T07:01:53;8.27;;;6.60;;
44147;SDS011;29810;55.848;37.368;2022-07-25T07:04:54;8.88;;;7.20;;
44147;SDS011;29810;55.848;37.368;2022-07-25T07:07:56;7.20;;;6.50;;
44147;SDS011;29810;55.848;37.368;2022-07-25T07:10:58;7.40;;;6.70;;
44147;SDS011;29810;55.848;37.368;2022-07-25T07:14:00;9.73;;;6.70;;
44147;SDS011;29810;55.848;37.368;2022-07-25T07:17:03;8.35;;;7.07;;
44147;SDS011;29810;55.848;37.368;2022-07-25T07:20:05;10.13;;;7.37;;
44147;SDS011;29810;55.848;37.368;2022-07-25T07:23:08;8.88;;;7.28;;
44147;SDS011;29810;55.848;37.368;2022-07-25T07:26:10;10.32;;;7.25;;
44147;SDS011;29810;55.848;37.368;2022-07-25T07:29:11;9.43;;;7.10;;
44147;SDS011;29810;55.848;37.368;2022-07-25T07:32:13;7.35;;;6.60;;
44147;SDS011;29810;55.848;37.368;2022-07-25T07:35:14;11.45;;;7.28;;
44147;SDS011;29810;55.848;37.368;2022-07-25T07:38:16;9.82;;;7.68;;
44147;SDS011;29810;55.848;37.368;2022-07-25T07:41:18;8.20;;;7.40;;
44147;SDS011;29810;55.848;37.368;2022-07-25T07:44:20;12.02;;;7.00;;
44147;SDS011;29810;55.848;37.368;2022-07-25T07:47:21;8.40;;;6.90;;
44147;SDS011;29810;55.848;37.368;2022-07-25T07:50:24;8.02;;;7.22;;
44147;SDS011;29810;55.848;37.368;2022-07-25T07:53:27;8.95;;;7.10;;
44147;SDS011;29810;55.848;37.368;2022-07-25T07:56:47;12.05;;;7.50;;
44147;SDS011;29810;55.848;37.368;2022-07-25T07:59:49;7.85;;;7.07;;
44147;SDS011;29810;55.848;37.368;2022-07-25T08:02:51;8.07;;;6.70;;
44147;SDS011;29810;55.848;37.368;2022-07-25T08:05:53;8.32;;;6.97;;
44147;SDS011;29810;55.848;37.368;2022-07-25T08:08:55;7.90;;;6.75;;
44147;SDS011;29810;55.848;37.368;2022-07-25T08:11:56;9.23;;;7.10;;
44147;SDS011;29810;55.848;37.368;2022-07-25T08:14:58;8.25;;;7.37;;
44147;SDS011;29810;55.848;37.368;2022-07-25T08:17:59;10.25;;;7.90;;
44147;SDS011;29810;55.848;37.368;2022-07-25T08:21:01;8.02;;;7.25;;
44147;SDS011;29810;55.848;37.368;2022-07-25T08:24:06;8.13;;;6.60;;
44147;SDS011;29810;55.848;37.368;2022-07-25T08:27:07;7.82;;;6.28;;
44147;SDS011;29810;55.848;37.368;2022-07-25T08:30:11;7.32;;;6.57;;
44147;SDS011;29810;55.848;37.368;2022-07-25T08:33:13;8.10;;;6.03;;
44147;SDS011;29810;55.848;37.368;2022-07-25T08:36:18;10.50;;;7.83;;
44147;SDS011;29810;55.848;37.368;2022-07-25T08:39:19;6.30;;;5.55;;
44147;SDS011;29810;55.848;37.368;2022-07-25T08:42:21;8.10;;;6.30;;
44147;SDS011;29810;55.848;37.368;2022-07-25T08:45:23;7.22;;;6.37;;
44147;SDS011;29810;55.848;37.368;2022-07-25T08:48:27;7.03;;;6.32;;
44147;SDS011;29810;55.848;37.368;2022-07-25T08:51:29;6.95;;;6.22;;
44147;SDS011;29810;55.848;37.368;2022-07-25T08:54:34;8.90;;;7.97;;
44147;SDS011;29810;55.848;37.368;2022-07-25T08:57:36;8.65;;;6.60;;
44147;SDS011;29810;55.848;37.368;2022-07-25T09:00:41;6.80;;;6.10;;
44147;SDS011;29810;55.848;37.368;2022-07-25T09:03:43;6.72;;;6.03;;
44147;SDS011;29810;55.848;37.368;2022-07-25T09:06:51;6.53;;;5.90;;
44147;SDS011;29810;55.848;37.368;2022-07-25T09:09:53;7.65;;;5.78;;
44147;SDS011;29810;55.848;37.368;2022-07-25T09:12:58;6.82;;;5.62;;
44147;SDS011;29810;55.848;37.368;2022-07-25T09:16:01;7.18;;;5.25;;
44147;SDS011;29810;55.848;37.368;2022-07-25T09:19:10;7.10;;;6.40;;
44147;SDS011;29810;55.848;37.368;2022-07-25T09:22:15;7.05;;;6.20;;
44147;SDS011;29810;55.848;37.368;2022-07-25T09:25:21;8.48;;;6.03;;
44147;SDS011;29810;55.848;37.368;2022-07-25T09:28:23;6.18;;;5.57;;
44147;SDS011;29810;55.848;37.368;2022-07-25T09:31:30;6.85;;;5.40;;
44147;SDS011;29810;55.848;37.368;2022-07-25T09:34:34;5.65;;;4.95;;
44147;SDS011;29810;55.848;37.368;2022-07-25T09:37:35;5.82;;;4.90;;
44147;SDS011;29810;55.848;37.368;2022-07-25T09:40:37;5.62;;;4.85;;
44147;SDS011;29810;55.848;37.368;2022-07-25T09:43:39;7.10;;;4.70;;
44147;SDS011;29810;55.848;37.368;2022-07-25T09:46:41;4.97;;;4.47;;
44147;SDS011;29810;55.848;37.368;2022-07-25T09:49:44;6.37;;;4.95;;
44147;SDS011;29810;55.848;37.368;2022-07-25T09:52:48;5.65;;;5.05;;
44147;SDS011;29810;55.848;37.368;2022-07-25T09:55:51;8.52;;;6.12;;
44147;SDS011;29810;55.848;37.368;2022-07-25T09:58:54;5.60;;;5.10;;
44147;SDS011;29810;55.848;37.368;2022-07-25T10:05:19;6.12;;;5.47;;
44147;SDS011;29810;55.848;37.368;2022-07-25T10:08:43;7.97;;;5.67;;
44147;SDS011;29810;55.848;37.368;2022-07-25T10:12:04;8.15;;;5.50;;
44147;SDS011;29810;55.848;37.368;2022-07-25T10:15:09;6.93;;;5.70;;
44147;SDS011;29810;55.848;37.368;2022-07-25T10:18:13;6.32;;;5.72;;
44147;SDS011;29810;55.848;37.368;2022-07-25T10:21:15;5.82;;;5.22;;
44147;SDS011;29810;55.848;37.368;2022-07-25T10:24:18;10.15;;;5.82;;
44147;SDS011;29810;55.848;37.368;2022-07-25T10:27:20;6.97;;;5.30;;
44147;SDS011;29810;55.848;37.368;2022-07-25T10:30:24;8.13;;;5.87;;
44147;SDS011;29810;55.848;37.368;2022-07-25T10:33:39;5.50;;;5.00;;
44147;SDS011;29810;55.848;37.368;2022-07-25T10:36:43;6.32;;;5.15;;
44147;SDS011;29810;55.848;37.368;2022-07-25T10:39:48;5.87;;;5.22;;
44147;SDS011;29810;55.848;37.368;2022-07-25T10:42:50;11.45;;;5.50;;
44147;SDS011;29810;55.848;37.368;2022-07-25T10:46:17;6.43;;;5.32;;
44147;SDS011;29810;55.848;37.368;2022-07-25T10:49:22;7.35;;;5.37;;
44147;SDS011;29810;55.848;37.368;2022-07-25T10:52:27;6.45;;;5.50;;
44147;SDS011;29810;55.848;37.368;2022-07-25T10:55:29;6.68;;;5.97;;
44147;SDS011;29810;55.848;37.368;2022-07-25T10:59:10;9.15;;;6.12;;
44147;SDS011;29810;55.848;37.368;2022-07-25T11:02:05;6.85;;;5.90;;
44147;SDS011;29810;55.848;37.368;2022-07-25T11:05:09;7.93;;;5.60;;
44147;SDS011;29810;55.848;37.368;2022-07-25T11:08:11;6.43;;;5.80;;
44147;SDS011;29810;55.848;37.368;2022-07-25T11:11:12;7.43;;;5.87;;
44147;SDS011;29810;55.848;37.368;2022-07-25T11:17:22;6.10;;;5.15;;
44147;SDS011;29810;55.848;37.368;2022-07-25T11:20:24;6.80;;;5.28;;
44147;SDS011;29810;55.848;37.368;2022-07-25T11:23:25;5.87;;;4.78;;
44147;SDS011;29810;55.848;37.368;2022-07-25T11:26:27;5.85;;;5.07;;
44147;SDS011;29810;55.848;37.368;2022-07-25T11:29:29;6.82;;;4.82;;
44147;SDS011;29810;55.848;37.368;2022-07-25T11:32:37;7.93;;;5.40;;
44147;SDS011;29810;55.848;37.368;2022-07-25T11:35:40;5.78;;;5.15;;
44147;SDS011;29810;55.848;37.368;2022-07-25T11:38:42;7.15;;;5.47;;
44147;SDS011;29810;55.848;37.368;2022-07-25T11:41:57;6.65;;;5.15;;
44147;SDS011;29810;55.848;37.368;2022-07-25T11:45:26;5.40;;;4.90;;
44147;SDS011;29810;55.848;37.368;2022-07-25T11:48:37;6.93;;;4.70;;
44147;SDS011;29810;55.848;37.368;2022-07-25T11:51:40;5.20;;;4.05;;
44147;SDS011;29810;55.848;37.368;2022-07-25T11:54:48;5.80;;;5.18;;
44147;SDS011;29810;55.848;37.368;2022-07-25T11:57:56;5.70;;;5.10;;
44147;SDS011;29810;55.848;37.368;2022-07-25T12:01:09;5.20;;;4.65;;
44147;SDS011;29810;55.848;37.368;2022-07-25T12:04:13;5.97;;;4.72;;
44147;SDS011;29810;55.848;37.368;2022-07-25T12:07:17;7.00;;;5.00;;
44147;SDS011;29810;55.848;37.368;2022-07-25T12:10:37;5.20;;;4.70;;
44147;SDS011;29810;55.848;37.368;2022-07-25T12:13:39;6.90;;;5.10;;
44147;SDS011;29810;55.848;37.368;2022-07-25T12:16:41;7.70;;;4.72;;
44147;SDS011;29810;55.848;37.368;2022-07-25T12:19:44;6.82;;;4.65;;
44147;SDS011;29810;55.848;37.368;2022-07-25T12:22:48;6.90;;;4.85;;
44147;SDS011;29810;55.848;37.368;2022-07-25T12:25:51;6.85;;;4.75;;
44147;SDS011;29810;55.848;37.368;2022-07-25T12:28:52;8.50;;;4.72;;
44147;SDS011;29810;55.848;37.368;2022-07-25T12:31:54;6.25;;;4.75;;
44147;SDS011;29810;55.848;37.368;2022-07-25T12:34:56;4.93;;;4.43;;
44147;SDS011;29810;55.848;37.368;2022-07-25T12:37:58;5.40;;;4.47;;
44147;SDS011;29810;55.848;37.368;2022-07-25T12:41:00;6.95;;;4.50;;
44147;SDS011;29810;55.848;37.368;2022-07-25T12:44:01;7.57;;;4.57;;
44147;SDS011;29810;55.848;37.368;2022-07-25T12:47:04;5.15;;;4.65;;
44147;SDS011;29810;55.848;37.368;2022-07-25T12:50:06;5.30;;;4.40;;
44147;SDS011;29810;55.848;37.368;2022-07-25T12:53:08;6.22;;;4.20;;
44147;SDS011;29810;55.848;37.368;2022-07-25T12:56:09;4.53;;;4.12;;
44147;SDS011;29810;55.848;37.368;2022-07-25T12:59:11;5.45;;;4.37;;
44147;SDS011;29810;55.848;37.368;2022-07-25T13:02:13;5.00;;;4.50;;
44147;SDS011;29810;55.848;37.368;2022-07-25T13:05:15;5.15;;;4.65;;
44147;SDS011;29810;55.848;37.368;2022-07-25T13:08:17;5.15;;;4.50;;
44147;SDS011;29810;55.848;37.368;2022-07-25T13:11:18;5.60;;;4.32;;
44147;SDS011;29810;55.848;37.368;2022-07-25T13:14:20;6.15;;;5.20;;
44147;SDS011;29810;55.848;37.368;2022-07-25T13:17:21;5.43;;;4.40;;
44147;SDS011;29810;55.848;37.368;2022-07-25T13:20:23;5.78;;;4.30;;
44147;SDS011;29810;55.848;37.368;2022-07-25T13:23:25;4.57;;;4.15;;
44147;SDS011;29810;55.848;37.368;2022-07-25T13:26:26;6.15;;;4.70;;
44147;SDS011;29810;55.848;37.368;2022-07-25T13:29:28;4.45;;;3.90;;
44147;SDS011;29810;55.848;37.368;2022-07-25T13:32:29;5.53;;;4.20;;
44147;SDS011;29810;55.848;37.368;2022-07-25T13:35:31;4.85;;;4.35;;
44147;SDS011;29810;55.848;37.368;2022-07-25T13:38:33;5.10;;;4.45;;
44147;SDS011;29810;55.848;37.368;2022-07-25T13:41:36;6.50;;;4.60;;
44147;SDS011;29810;55.848;37.368;2022-07-25T13:44:37;5.03;;;4.20;;
44147;SDS011;29810;55.848;37.368;2022-07-25T13:47:39;5.57;;;4.50;;
44147;SDS011;29810;55.848;37.368;2022-07-25T13:50:40;5.37;;;4.55;;
44147;SDS011;29810;55.848;37.368;2022-07-25T13:53:42;5.05;;;4.43;;
44147;SDS011;29810;55.848;37.368;2022-07-25T13:56:44;5.28;;;4.47;;
44147;SDS011;29810;55.848;37.368;2022-07-25T13:59:47;4.72;;;4.22;;
44147;SDS011;29810;55.848;37.368;2022-07-25T14:02:48;5.37;;;4.50;;
44147;SDS011;29810;55.848;37.368;2022-07-25T14:05:50;6.03;;;4.50;;
44147;SDS011;29810;55.848;37.368;2022-07-25T14:08:52;5.57;;;4.72;;
44147;SDS011;29810;55.848;37.368;2022-07-25T14:11:53;5.95;;;4.40;;
44147;SDS011;29810;55.848;37.368;2022-07-25T14:14:55;4.90;;;4.40;;
44147;SDS011;29810;55.848;37.368;2022-07-25T14:17:56;10.45;;;9.43;;
44147;SDS011;29810;55.848;37.368;2022-07-25T14:20:58;5.65;;;5.10;;
44147;SDS011;29810;55.848;37.368;2022-07-25T14:24:00;6.07;;;4.45;;
44147;SDS011;29810;55.848;37.368;2022-07-25T14:27:01;4.50;;;4.10;;
44147;SDS011;29810;55.848;37.368;2022-07-25T14:30:04;5.55;;;4.20;;
44147;SDS011;29810;55.848;37.368;2022-07-25T14:33:07;6.25;;;5.68;;
44147;SDS011;29810;55.848;37.368;2022-07-25T14:36:09;5.95;;;4.10;;
44147;SDS011;29810;55.848;37.368;2022-07-25T14:39:11;5.30;;;4.25;;
44147;SDS011;29810;55.848;37.368;2022-07-25T14:42:12;4.45;;;4.05;;
44147;SDS011;29810;55.848;37.368;2022-07-25T14:45:14;7.40;;;3.83;;
44147;SDS011;29810;55.848;37.368;2022-07-25T14:48:16;4.78;;;4.15;;
44147;SDS011;29810;55.848;37.368;2022-07-25T14:51:17;6.95;;;4.80;;
44147;SDS011;29810;55.848;37.368;2022-07-25T14:54:20;5.25;;;4.57;;
44147;SDS011;29810;55.848;37.368;2022-07-25T14:57:21;4.78;;;4.00;;
44147;SDS011;29810;55.848;37.368;2022-07-25T15:00:23;5.32;;;4.10;;
44147;SDS011;29810;55.848;37.368;2022-07-25T15:03:24;5.30;;;4.22;;
44147;SDS011;29810;55.848;37.368;2022-07-25T15:06:26;6.12;;;4.20;;
44147;SDS011;29810;55.848;37.368;2022-07-25T15:09:28;4.72;;;4.32;;
44147;SDS011;29810;55.848;37.368;2022-07-25T15:12:29;4.35;;;3.95;;
44147;SDS011;29810;55.848;37.368;2022-07-25T15:15:31;6.05;;;4.37;;
44147;SDS011;29810;55.848;37.368;2022-07-25T15:18:33;4.97;;;4.22;;
44147;SDS011;29810;55.848;37.368;2022-07-25T15:21:35;5.03;;;4.22;;
44147;SDS011;29810;55.848;37.368;2022-07-25T15:24:39;6.37;;;3.97;;
44147;SDS011;29810;55.848;37.368;2022-07-25T15:27:41;5.10;;;3.85;;
44147;SDS011;29810;55.848;37.368;2022-07-25T15:30:43;5.00;;;3.95;;
44147;SDS011;29810;55.848;37.368;2022-07-25T15:33:44;5.80;;;4.10;;
44147;SDS011;29810;55.848;37.368;2022-07-25T15:36:46;4.53;;;3.90;;
44147;SDS011;29810;55.848;37.368;2022-07-25T15:39:47;5.25;;;4.20;;
44147;SDS011;29810;55.848;37.368;2022-07-25T15:42:49;4.43;;;3.97;;
44147;SDS011;29810;55.848;37.368;2022-07-25T15:45:52;4.90;;;4.40;;
44147;SDS011;29810;55.848;37.368;2022-07-25T15:48:53;4.90;;;3.95;;
44147;SDS011;29810;55.848;37.368;2022-07-25T15:51:57;7.55;;;4.47;;
44147;SDS011;29810;55.848;37.368;2022-07-25T15:54:59;7.03;;;4.20;;
44147;SDS011;29810;55.848;37.368;2022-07-25T15:58:00;5.18;;;3.90;;
44147;SDS011;29810;55.848;37.368;2022-07-25T16:01:02;5.18;;;4.20;;
44147;SDS011;29810;55.848;37.368;2022-07-25T16:04:04;6.15;;;4.60;;
44147;SDS011;29810;55.848;37.368;2022-07-25T16:07:05;6.50;;;4.28;;
44147;SDS011;29810;55.848;37.368;2022-07-25T16:10:08;5.10;;;4.60;;
44147;SDS011;29810;55.848;37.368;2022-07-25T16:13:12;6.30;;;4.90;;
44147;SDS011;29810;55.848;37.368;2022-07-25T16:16:13;6.15;;;4.95;;
44147;SDS011;29810;55.848;37.368;2022-07-25T16:19:15;6.68;;;4.82;;
44147;SDS011;29810;55.848;37.368;2022-07-25T16:22:18;6.45;;;4.70;;
44147;SDS011;29810;55.848;37.368;2022-07-25T16:25:19;6.20;;;4.90;;
44147;SDS011;29810;55.848;37.368;2022-07-25T16:28:22;5.10;;;4.60;;
44147;SDS011;29810;55.848;37.368;2022-07-25T16:31:24;6.70;;;4.82;;
44147;SDS011;29810;55.848;37.368;2022-07-25T16:34:26;5.97;;;4.87;;
44147;SDS011;29810;55.848;37.368;2022-07-25T16:37:28;7.00;;;4.87;;
44147;SDS011;29810;55.848;37.368;2022-07-25T16:40:29;6.40;;;5.40;;
44147;SDS011;29810;55.848;37.368;2022-07-25T16:43:31;5.60;;;4.95;;
44147;SDS011;29810;55.848;37.368;2022-07-25T16:46:32;6.07;;;5.45;;
44147;SDS011;29810;55.848;37.368;2022-07-25T16:49:34;6.37;;;5.15;;
44147;SDS011;29810;55.848;37.368;2022-07-25T16:52:36;6.03;;;5.37;;
44147;SDS011;29810;55.848;37.368;2022-07-25T16:55:37;6.10;;;5.32;;
44147;SDS011;29810;55.848;37.368;2022-07-25T16:58:39;5.87;;;5.37;;
44147;SDS011;29810;55.848;37.368;2022-07-25T17:01:41;7.97;;;5.05;;
44147;SDS011;29810;55.848;37.368;2022-07-25T17:04:42;6.10;;;5.47;;
44147;SDS011;29810;55.848;37.368;2022-07-25T17:07:44;7.60;;;5.10;;
44147;SDS011;29810;55.848;37.368;2022-07-25T17:10:46;4.15;;;2.67;;
44147;SDS011;29810;55.848;37.368;2022-07-25T17:13:47;4.20;;;2.92;;
44147;SDS011;29810;55.848;37.368;2022-07-25T17:16:49;4.15;;;3.75;;
44147;SDS011;29810;55.848;37.368;2022-07-25T17:19:50;6.00;;;3.40;;
44147;SDS011;29810;55.848;37.368;2022-07-25T17:22:52;5.90;;;3.42;;
44147;SDS011;29810;55.848;37.368;2022-07-25T17:25:53;8.13;;;4.22;;
44147;SDS011;29810;55.848;37.368;2022-07-25T17:28:55;5.68;;;4.20;;
44147;SDS011;29810;55.848;37.368;2022-07-25T17:31:58;6.00;;;4.32;;
44147;SDS011;29810;55.848;37.368;2022-07-25T17:35:00;6.18;;;4.55;;
44147;SDS011;29810;55.848;37.368;2022-07-25T17:38:01;6.85;;;4.50;;
44147;SDS011;29810;55.848;37.368;2022-07-25T17:41:03;6.85;;;4.55;;
44147;SDS011;29810;55.848;37.368;2022-07-25T17:44:05;6.03;;;4.28;;
44147;SDS011;29810;55.848;37.368;2022-07-25T17:47:08;8.32;;;4.47;;
44147;SDS011;29810;55.848;37.368;2022-07-25T17:50:10;6.87;;;5.30;;
44147;SDS011;29810;55.848;37.368;2022-07-25T17:53:12;6.68;;;5.07;;
44147;SDS011;29810;55.848;37.368;2022-07-25T17:56:14;9.38;;;5.03;;
44147;SDS011;29810;55.848;37.368;2022-07-25T17:59:16;6.25;;;5.50;;
44147;SDS011;29810;55.848;37.368;2022-07-25T18:02:17;6.62;;;5.60;;
44147;SDS011;29810;55.848;37.368;2022-07-25T18:05:19;6.80;;;6.10;;
44147;SDS011;29810;55.848;37.368;2022-07-25T18:08:21;7.20;;;6.10;;